sensor_id;sensor_type;location;lat;lon;timestamp;temperature;humidity
55213;DHT22;41083;52.932;6.674;2022-12-29T00:01:28;9.90;99.90
55213;DHT22;41083;52.932;6.674;2022-12-29T00:03:53;9.90;99.90
55213;DHT22;41083;52.932;6.674;2022-12-29T00:06:19;9.90;99.90
55213;DHT22;41083;52.932;6.674;2022-12-29T00:08:44;9.90;99.90
55213;DHT22;41083;52.932;6.674;2022-12-29T00:11:16;10.00;99.90
55213;DHT22;41083;52.932;6.674;2022-12-29T00:13:42;9.90;99.90
55213;DHT22;41083;52.932;6.674;2022-12-29T00:16:28;9.90;99.90
55213;DHT22;41083;52.932;6.674;2022-12-29T00:18:53;9.90;99.90
55213;DHT22;41083;52.932;6.674;2022-12-29T00:21:21;9.90;99.90
55213;DHT22;41083;52.932;6.674;2022-12-29T00:24:08;9.90;99.90
55213;DHT22;41083;52.932;6.674;2022-12-29T00:26:40;10.00;99.90
55213;DHT22;41083;52.932;6.674;2022-12-29T00:29:24;9.90;99.90
55213;DHT22;41083;52.932;6.674;2022-12-29T00:32:09;9.90;99.90
55213;DHT22;41083;52.932;6.674;2022-12-29T00:34:53;9.90;99.90
55213;DHT22;41083;52.932;6.674;2022-12-29T00:37:40;9.90;99.90
55213;DHT22;41083;52.932;6.674;2022-12-29T00:40:25;9.90;99.90
55213;DHT22;41083;52.932;6.674;2022-12-29T00:43:09;10.00;99.90
55213;DHT22;41083;52.932;6.674;2022-12-29T00:45:54;9.90;99.90
55213;DHT22;41083;52.932;6.674;2022-12-29T00:48:19;10.00;99.90
55213;DHT22;41083;52.932;6.674;2022-12-29T00:51:05;10.00;99.90
55213;DHT22;41083;52.932;6.674;2022-12-29T00:53:31;10.00;99.90
55213;DHT22;41083;52.932;6.674;2022-12-29T00:55:56;10.00;99.90
55213;DHT22;41083;52.932;6.674;2022-12-29T00:58:22;10.00;99.90
55213;DHT22;41083;52.932;6.674;2022-12-29T01:00:48;10.00;99.90
55213;DHT22;41083;52.932;6.674;2022-12-29T01:03:13;10.00;99.90
55213;DHT22;41083;52.932;6.674;2022-12-29T01:05:39;10.00;99.90
55213;DHT22;41083;52.932;6.674;2022-12-29T01:08:04;10.10;99.90
55213;DHT22;41083;52.932;6.674;2022-12-29T01:10:30;10.10;99.90
55213;DHT22;41083;52.932;6.674;2022-12-29T01:12:55;10.00;99.90
55213;DHT22;41083;52.932;6.674;2022-12-29T01:15:21;10.00;99.90
55213;DHT22;41083;52.932;6.674;2022-12-29T01:17:46;10.10;99.90
55213;DHT22;41083;52.932;6.674;2022-12-29T01:20:12;10.00;99.90
55213;DHT22;41083;52.932;6.674;2022-12-29T01:22:38;10.10;99.90
55213;DHT22;41083;52.932;6.674;2022-12-29T01:25:05;10.00;99.90
55213;DHT22;41083;52.932;6.674;2022-12-29T01:27:31;10.00;99.90
55213;DHT22;41083;52.932;6.674;2022-12-29T01:29:56;10.00;99.90
55213;DHT22;41083;52.932;6.674;2022-12-29T01:32:22;10.00;99.90
55213;DHT22;41083;52.932;6.674;2022-12-29T01:34:48;10.00;99.90
55213;DHT22;41083;52.932;6.674;2022-12-29T01:37:13;10.00;99.90
55213;DHT22;41083;52.932;6.674;2022-12-29T01:39:39;10.10;99.90
55213;DHT22;41083;52.932;6.674;2022-12-29T01:42:05;10.10;99.90
55213;DHT22;41083;52.932;6.674;2022-12-29T01:45:01;10.10;99.90
55213;DHT22;41083;52.932;6.674;2022-12-29T01:47:32;10.10;99.90
55213;DHT22;41083;52.932;6.674;2022-12-29T01:50:04;10.10;99.90
55213;DHT22;41083;52.932;6.674;2022-12-29T01:52:33;10.10;99.90
55213;DHT22;41083;52.932;6.674;2022-12-29T01:55:02;10.10;99.90
55213;DHT22;41083;52.932;6.674;2022-12-29T01:57:33;10.20;99.90
55213;DHT22;41083;52.932;6.674;2022-12-29T02:00:08;10.20;99.90
55213;DHT22;41083;52.932;6.674;2022-12-29T02:02:34;10.10;99.90
55213;DHT22;41083;52.932;6.674;2022-12-29T02:05:07;10.20;99.90
55213;DHT22;41083;52.932;6.674;2022-12-29T02:07:34;10.20;99.90
55213;DHT22;41083;52.932;6.674;2022-12-29T02:10:01;10.20;99.90
55213;DHT22;41083;52.932;6.674;2022-12-29T02:12:27;10.20;99.90
55213;DHT22;41083;52.932;6.674;2022-12-29T02:14:58;10.20;99.90
55213;DHT22;41083;52.932;6.674;2022-12-29T02:31:59;10.30;99.90
55213;DHT22;41083;52.932;6.674;2022-12-29T02:34:58;10.30;99.90
55213;DHT22;41083;52.932;6.674;2022-12-29T02:37:34;10.30;99.90
55213;DHT22;41083;52.932;6.674;2022-12-29T02:40:17;10.30;99.90
55213;DHT22;41083;52.932;6.674;2022-12-29T02:43:02;10.30;99.90
55213;DHT22;41083;52.932;6.674;2022-12-29T02:48:43;10.30;99.90
55213;DHT22;41083;52.932;6.674;2022-12-29T02:51:15;10.20;99.90
55213;DHT22;41083;52.932;6.674;2022-12-29T02:53:43;10.20;99.90
55213;DHT22;41083;52.932;6.674;2022-12-29T02:56:28;10.20;99.90
55213;DHT22;41083;52.932;6.674;2022-12-29T02:58:53;10.20;99.90
55213;DHT22;41083;52.932;6.674;2022-12-29T03:04:39;10.20;99.90
55213;DHT22;41083;52.932;6.674;2022-12-29T03:07:10;10.20;99.90
55213;DHT22;41083;52.932;6.674;2022-12-29T03:10:19;10.20;99.90
55213;DHT22;41083;52.932;6.674;2022-12-29T03:13:04;10.20;99.90
55213;DHT22;41083;52.932;6.674;2022-12-29T03:16:01;10.20;99.90
55213;DHT22;41083;52.932;6.674;2022-12-29T03:21:34;10.30;99.90
55213;DHT22;41083;52.932;6.674;2022-12-29T03:24:39;10.20;99.90
55213;DHT22;41083;52.932;6.674;2022-12-29T03:27:06;10.20;99.90
55213;DHT22;41083;52.932;6.674;2022-12-29T03:29:39;10.30;99.90
55213;DHT22;41083;52.932;6.674;2022-12-29T03:32:07;10.30;99.90
55213;DHT22;41083;52.932;6.674;2022-12-29T03:34:34;10.30;99.90
55213;DHT22;41083;52.932;6.674;2022-12-29T03:37:06;10.30;99.90
55213;DHT22;41083;52.932;6.674;2022-12-29T03:39:33;10.30;99.90
55213;DHT22;41083;52.932;6.674;2022-12-29T03:42:04;10.30;99.90
55213;DHT22;41083;52.932;6.674;2022-12-29T03:44:33;10.30;99.90
55213;DHT22;41083;52.932;6.674;2022-12-29T03:46:59;10.30;99.90
55213;DHT22;41083;52.932;6.674;2022-12-29T03:49:24;10.30;99.90
55213;DHT22;41083;52.932;6.674;2022-12-29T03:51:50;10.20;99.90
55213;DHT22;41083;52.932;6.674;2022-12-29T03:54:15;10.20;99.90
55213;DHT22;41083;52.932;6.674;2022-12-29T03:56:41;10.20;99.90
55213;DHT22;41083;52.932;6.674;2022-12-29T03:59:06;10.20;99.90
55213;DHT22;41083;52.932;6.674;2022-12-29T04:01:32;10.30;99.90
55213;DHT22;41083;52.932;6.674;2022-12-29T04:03:57;10.30;99.90
55213;DHT22;41083;52.932;6.674;2022-12-29T04:06:23;10.30;99.90
55213;DHT22;41083;52.932;6.674;2022-12-29T04:08:49;10.30;99.90
55213;DHT22;41083;52.932;6.674;2022-12-29T04:11:14;10.30;99.90
55213;DHT22;41083;52.932;6.674;2022-12-29T04:13:40;10.20;99.90
55213;DHT22;41083;52.932;6.674;2022-12-29T04:16:06;10.20;99.90
55213;DHT22;41083;52.932;6.674;2022-12-29T04:18:32;10.20;99.90
55213;DHT22;41083;52.932;6.674;2022-12-29T04:20:57;10.20;99.90
55213;DHT22;41083;52.932;6.674;2022-12-29T04:23:27;10.10;99.90
55213;DHT22;41083;52.932;6.674;2022-12-29T04:25:53;10.10;99.90
55213;DHT22;41083;52.932;6.674;2022-12-29T04:28:19;10.00;99.90
55213;DHT22;41083;52.932;6.674;2022-12-29T04:30:44;10.00;99.90
55213;DHT22;41083;52.932;6.674;2022-12-29T04:33:10;10.00;99.90
55213;DHT22;41083;52.932;6.674;2022-12-29T04:35:35;9.90;99.90
55213;DHT22;41083;52.932;6.674;2022-12-29T04:38:01;9.80;99.90
55213;DHT22;41083;52.932;6.674;2022-12-29T04:40:27;9.80;99.90
55213;DHT22;41083;52.932;6.674;2022-12-29T04:42:53;9.80;99.90
55213;DHT22;41083;52.932;6.674;2022-12-29T04:45:18;9.70;99.90
55213;DHT22;41083;52.932;6.674;2022-12-29T04:47:44;9.70;99.90
55213;DHT22;41083;52.932;6.674;2022-12-29T04:50:10;9.70;99.90
55213;DHT22;41083;52.932;6.674;2022-12-29T04:52:36;9.60;99.90
55213;DHT22;41083;52.932;6.674;2022-12-29T04:55:01;9.60;99.90
55213;DHT22;41083;52.932;6.674;2022-12-29T04:57:27;9.60;99.90
55213;DHT22;41083;52.932;6.674;2022-12-29T04:59:53;9.60;99.90
55213;DHT22;41083;52.932;6.674;2022-12-29T05:02:18;9.70;99.90
55213;DHT22;41083;52.932;6.674;2022-12-29T05:04:44;9.70;99.90
55213;DHT22;41083;52.932;6.674;2022-12-29T05:07:10;9.70;99.90
55213;DHT22;41083;52.932;6.674;2022-12-29T05:09:35;9.70;99.90
55213;DHT22;41083;52.932;6.674;2022-12-29T05:12:01;9.70;99.90
55213;DHT22;41083;52.932;6.674;2022-12-29T05:14:26;9.70;99.90
55213;DHT22;41083;52.932;6.674;2022-12-29T05:16:52;9.60;99.90
55213;DHT22;41083;52.932;6.674;2022-12-29T05:19:18;9.60;99.90
55213;DHT22;41083;52.932;6.674;2022-12-29T05:21:43;9.70;99.90
55213;DHT22;41083;52.932;6.674;2022-12-29T05:24:09;9.60;99.90
55213;DHT22;41083;52.932;6.674;2022-12-29T05:26:34;9.60;99.90
55213;DHT22;41083;52.932;6.674;2022-12-29T05:29:00;9.60;99.90
55213;DHT22;41083;52.932;6.674;2022-12-29T05:31:26;9.60;99.90
55213;DHT22;41083;52.932;6.674;2022-12-29T05:33:52;9.60;99.90
55213;DHT22;41083;52.932;6.674;2022-12-29T05:36:18;9.50;99.90
55213;DHT22;41083;52.932;6.674;2022-12-29T05:38:43;9.50;99.90
55213;DHT22;41083;52.932;6.674;2022-12-29T05:41:09;9.50;99.90
55213;DHT22;41083;52.932;6.674;2022-12-29T05:43:35;9.50;99.90
55213;DHT22;41083;52.932;6.674;2022-12-29T05:46:00;9.50;99.90
55213;DHT22;41083;52.932;6.674;2022-12-29T05:48:26;9.50;99.90
55213;DHT22;41083;52.932;6.674;2022-12-29T05:50:52;9.50;99.90
55213;DHT22;41083;52.932;6.674;2022-12-29T05:53:17;9.50;99.90
55213;DHT22;41083;52.932;6.674;2022-12-29T05:55:44;9.40;99.90
55213;DHT22;41083;52.932;6.674;2022-12-29T05:58:11;9.40;99.90
55213;DHT22;41083;52.932;6.674;2022-12-29T06:00:36;9.40;99.90
55213;DHT22;41083;52.932;6.674;2022-12-29T06:03:02;9.40;99.90
55213;DHT22;41083;52.932;6.674;2022-12-29T06:05:27;9.40;99.90
55213;DHT22;41083;52.932;6.674;2022-12-29T06:07:53;9.40;99.90
55213;DHT22;41083;52.932;6.674;2022-12-29T06:10:19;9.50;99.90
55213;DHT22;41083;52.932;6.674;2022-12-29T06:12:45;9.50;99.90
55213;DHT22;41083;52.932;6.674;2022-12-29T06:15:12;9.50;99.90
55213;DHT22;41083;52.932;6.674;2022-12-29T06:17:38;9.50;99.90
55213;DHT22;41083;52.932;6.674;2022-12-29T06:20:04;9.50;99.90
55213;DHT22;41083;52.932;6.674;2022-12-29T06:22:30;9.50;99.90
55213;DHT22;41083;52.932;6.674;2022-12-29T06:24:55;9.50;99.90
55213;DHT22;41083;52.932;6.674;2022-12-29T06:27:21;9.50;99.90
55213;DHT22;41083;52.932;6.674;2022-12-29T06:29:46;9.50;99.90
55213;DHT22;41083;52.932;6.674;2022-12-29T06:32:12;9.50;99.90
55213;DHT22;41083;52.932;6.674;2022-12-29T06:34:37;9.50;99.90
55213;DHT22;41083;52.932;6.674;2022-12-29T06:37:03;9.60;99.90
55213;DHT22;41083;52.932;6.674;2022-12-29T06:39:29;9.60;99.90
55213;DHT22;41083;52.932;6.674;2022-12-29T06:41:54;9.50;99.90
55213;DHT22;41083;52.932;6.674;2022-12-29T06:44:21;9.60;99.90
55213;DHT22;41083;52.932;6.674;2022-12-29T06:46:47;9.60;99.90
55213;DHT22;41083;52.932;6.674;2022-12-29T06:49:13;9.50;99.90
55213;DHT22;41083;52.932;6.674;2022-12-29T06:51:39;9.60;99.90
55213;DHT22;41083;52.932;6.674;2022-12-29T06:54:05;9.60;99.90
55213;DHT22;41083;52.932;6.674;2022-12-29T06:56:31;9.60;99.90
55213;DHT22;41083;52.932;6.674;2022-12-29T06:58:56;9.60;99.90
55213;DHT22;41083;52.932;6.674;2022-12-29T07:01:22;9.50;99.90
55213;DHT22;41083;52.932;6.674;2022-12-29T07:03:48;9.50;99.90
55213;DHT22;41083;52.932;6.674;2022-12-29T07:06:14;9.50;99.90
55213;DHT22;41083;52.932;6.674;2022-12-29T07:08:39;9.50;99.90
55213;DHT22;41083;52.932;6.674;2022-12-29T07:11:05;9.50;99.90
55213;DHT22;41083;52.932;6.674;2022-12-29T07:13:31;9.50;99.90
55213;DHT22;41083;52.932;6.674;2022-12-29T07:15:56;9.50;99.90
55213;DHT22;41083;52.932;6.674;2022-12-29T07:18:22;9.50;99.90
55213;DHT22;41083;52.932;6.674;2022-12-29T07:20:48;9.50;99.90
55213;DHT22;41083;52.932;6.674;2022-12-29T07:23:13;9.50;99.90
55213;DHT22;41083;52.932;6.674;2022-12-29T07:25:39;9.50;99.90
55213;DHT22;41083;52.932;6.674;2022-12-29T07:28:06;9.50;99.90
55213;DHT22;41083;52.932;6.674;2022-12-29T07:30:32;9.50;99.90
55213;DHT22;41083;52.932;6.674;2022-12-29T07:32:58;9.50;99.90
55213;DHT22;41083;52.932;6.674;2022-12-29T07:35:23;9.50;99.90
55213;DHT22;41083;52.932;6.674;2022-12-29T07:37:49;9.50;99.90
55213;DHT22;41083;52.932;6.674;2022-12-29T07:40:15;9.50;99.90
55213;DHT22;41083;52.932;6.674;2022-12-29T07:42:41;9.50;99.90
55213;DHT22;41083;52.932;6.674;2022-12-29T07:45:07;9.50;99.90
55213;DHT22;41083;52.932;6.674;2022-12-29T07:47:34;9.50;99.90
55213;DHT22;41083;52.932;6.674;2022-12-29T07:50:00;9.60;99.90
55213;DHT22;41083;52.932;6.674;2022-12-29T07:52:25;9.50;99.90
55213;DHT22;41083;52.932;6.674;2022-12-29T07:54:51;9.60;99.90
55213;DHT22;41083;52.932;6.674;2022-12-29T07:57:17;9.60;99.90
55213;DHT22;41083;52.932;6.674;2022-12-29T07:59:42;9.50;99.90
55213;DHT22;41083;52.932;6.674;2022-12-29T08:02:12;9.50;99.90
55213;DHT22;41083;52.932;6.674;2022-12-29T08:04:38;9.50;99.90
55213;DHT22;41083;52.932;6.674;2022-12-29T08:07:03;9.50;99.90
55213;DHT22;41083;52.932;6.674;2022-12-29T08:09:29;9.50;99.90
55213;DHT22;41083;52.932;6.674;2022-12-29T08:11:54;9.50;99.90
55213;DHT22;41083;52.932;6.674;2022-12-29T08:14:20;9.50;99.90
55213;DHT22;41083;52.932;6.674;2022-12-29T08:16:46;9.50;99.90
55213;DHT22;41083;52.932;6.674;2022-12-29T08:19:12;9.60;99.90
55213;DHT22;41083;52.932;6.674;2022-12-29T08:21:38;9.60;99.90
55213;DHT22;41083;52.932;6.674;2022-12-29T08:24:04;9.60;99.90
55213;DHT22;41083;52.932;6.674;2022-12-29T08:26:30;9.60;99.90
55213;DHT22;41083;52.932;6.674;2022-12-29T08:28:55;9.60;99.90
55213;DHT22;41083;52.932;6.674;2022-12-29T08:31:22;9.60;99.90
55213;DHT22;41083;52.932;6.674;2022-12-29T08:33:47;9.70;99.90
55213;DHT22;41083;52.932;6.674;2022-12-29T08:36:13;9.60;99.90
55213;DHT22;41083;52.932;6.674;2022-12-29T08:38:39;9.60;99.90
55213;DHT22;41083;52.932;6.674;2022-12-29T08:41:04;9.60;99.90
55213;DHT22;41083;52.932;6.674;2022-12-29T08:43:30;9.60;99.90
55213;DHT22;41083;52.932;6.674;2022-12-29T08:45:57;9.60;99.90
55213;DHT22;41083;52.932;6.674;2022-12-29T08:48:24;9.70;99.90
55213;DHT22;41083;52.932;6.674;2022-12-29T08:50:50;9.70;99.90
55213;DHT22;41083;52.932;6.674;2022-12-29T08:53:16;9.70;99.90
55213;DHT22;41083;52.932;6.674;2022-12-29T08:55:45;9.70;99.90
55213;DHT22;41083;52.932;6.674;2022-12-29T08:58:11;9.70;99.90
55213;DHT22;41083;52.932;6.674;2022-12-29T09:00:41;9.70;99.90
55213;DHT22;41083;52.932;6.674;2022-12-29T09:03:07;9.70;99.90
55213;DHT22;41083;52.932;6.674;2022-12-29T09:05:33;9.70;99.90
55213;DHT22;41083;52.932;6.674;2022-12-29T09:07:58;9.70;99.90
55213;DHT22;41083;52.932;6.674;2022-12-29T09:10:24;9.80;99.90
55213;DHT22;41083;52.932;6.674;2022-12-29T09:12:49;9.80;99.90
55213;DHT22;41083;52.932;6.674;2022-12-29T09:15:15;9.80;99.90
55213;DHT22;41083;52.932;6.674;2022-12-29T09:17:41;9.80;99.90
55213;DHT22;41083;52.932;6.674;2022-12-29T09:20:17;9.70;99.90
55213;DHT22;41083;52.932;6.674;2022-12-29T09:22:44;9.70;99.90
55213;DHT22;41083;52.932;6.674;2022-12-29T09:25:11;9.70;99.90
55213;DHT22;41083;52.932;6.674;2022-12-29T09:27:37;9.70;99.90
55213;DHT22;41083;52.932;6.674;2022-12-29T09:30:04;9.70;99.90
55213;DHT22;41083;52.932;6.674;2022-12-29T09:32:31;9.60;99.90
55213;DHT22;41083;52.932;6.674;2022-12-29T09:34:57;9.60;99.90
55213;DHT22;41083;52.932;6.674;2022-12-29T09:37:22;9.60;99.90
55213;DHT22;41083;52.932;6.674;2022-12-29T09:39:48;9.60;99.90
55213;DHT22;41083;52.932;6.674;2022-12-29T09:42:33;9.70;99.90
55213;DHT22;41083;52.932;6.674;2022-12-29T09:45:20;9.60;99.90
55213;DHT22;41083;52.932;6.674;2022-12-29T09:47:50;9.70;99.90
55213;DHT22;41083;52.932;6.674;2022-12-29T09:50:32;9.70;99.90
55213;DHT22;41083;52.932;6.674;2022-12-29T09:53:14;9.70;99.90
55213;DHT22;41083;52.932;6.674;2022-12-29T09:55:55;9.70;99.90
55213;DHT22;41083;52.932;6.674;2022-12-29T09:58:23;9.70;99.90
55213;DHT22;41083;52.932;6.674;2022-12-29T10:03:58;9.60;99.90
55213;DHT22;41083;52.932;6.674;2022-12-29T10:14:40;9.40;99.90
55213;DHT22;41083;52.932;6.674;2022-12-29T10:20:54;9.30;99.90
55213;DHT22;41083;52.932;6.674;2022-12-29T10:26:03;9.20;99.90
55213;DHT22;41083;52.932;6.674;2022-12-29T10:28:43;9.10;99.90
55213;DHT22;41083;52.932;6.674;2022-12-29T10:31:17;9.10;99.90
55213;DHT22;41083;52.932;6.674;2022-12-29T10:33:46;9.10;99.90
55213;DHT22;41083;52.932;6.674;2022-12-29T10:36:33;9.00;99.90
55213;DHT22;41083;52.932;6.674;2022-12-29T10:39:12;9.10;99.90
55213;DHT22;41083;52.932;6.674;2022-12-29T10:41:46;9.00;99.90
55213;DHT22;41083;52.932;6.674;2022-12-29T10:44:16;9.00;99.90
55213;DHT22;41083;52.932;6.674;2022-12-29T10:46:43;9.00;99.90
55213;DHT22;41083;52.932;6.674;2022-12-29T10:49:17;9.00;99.90
55213;DHT22;41083;52.932;6.674;2022-12-29T10:51:46;9.00;99.90
55213;DHT22;41083;52.932;6.674;2022-12-29T10:56:52;9.10;99.90
55213;DHT22;41083;52.932;6.674;2022-12-29T10:59:25;9.10;99.90
55213;DHT22;41083;52.932;6.674;2022-12-29T11:05:02;9.10;99.90
55213;DHT22;41083;52.932;6.674;2022-12-29T11:07:30;9.10;99.90
55213;DHT22;41083;52.932;6.674;2022-12-29T11:12:58;9.10;99.90
55213;DHT22;41083;52.932;6.674;2022-12-29T11:15:24;9.10;99.90
55213;DHT22;41083;52.932;6.674;2022-12-29T11:17:57;9.10;99.90
55213;DHT22;41083;52.932;6.674;2022-12-29T11:20:38;9.10;99.90
55213;DHT22;41083;52.932;6.674;2022-12-29T11:23:20;9.20;99.90
55213;DHT22;41083;52.932;6.674;2022-12-29T11:25:51;9.20;99.90
55213;DHT22;41083;52.932;6.674;2022-12-29T11:28:30;9.20;99.90
55213;DHT22;41083;52.932;6.674;2022-12-29T11:31:01;9.30;99.90
55213;DHT22;41083;52.932;6.674;2022-12-29T11:33:32;9.30;99.90
55213;DHT22;41083;52.932;6.674;2022-12-29T11:36:06;9.30;99.90
55213;DHT22;41083;52.932;6.674;2022-12-29T11:38:39;9.30;99.90
55213;DHT22;41083;52.932;6.674;2022-12-29T11:41:06;9.40;99.90
55213;DHT22;41083;52.932;6.674;2022-12-29T11:43:40;9.40;99.90
55213;DHT22;41083;52.932;6.674;2022-12-29T11:46:17;9.40;99.90
55213;DHT22;41083;52.932;6.674;2022-12-29T11:48:46;9.40;99.90
55213;DHT22;41083;52.932;6.674;2022-12-29T11:51:13;9.40;99.90
55213;DHT22;41083;52.932;6.674;2022-12-29T11:53:48;9.40;99.90
55213;DHT22;41083;52.932;6.674;2022-12-29T11:56:16;9.40;99.90
55213;DHT22;41083;52.932;6.674;2022-12-29T11:58:43;9.30;99.90
55213;DHT22;41083;52.932;6.674;2022-12-29T12:03:42;9.30;99.90
55213;DHT22;41083;52.932;6.674;2022-12-29T12:06:13;9.30;99.90
55213;DHT22;41083;52.932;6.674;2022-12-29T12:08:46;9.30;99.90
55213;DHT22;41083;52.932;6.674;2022-12-29T12:11:24;9.40;99.90
55213;DHT22;41083;52.932;6.674;2022-12-29T12:14:11;9.40;99.90
55213;DHT22;41083;52.932;6.674;2022-12-29T12:16:41;9.40;99.90
55213;DHT22;41083;52.932;6.674;2022-12-29T12:19:32;9.50;99.90
55213;DHT22;41083;52.932;6.674;2022-12-29T12:22:08;9.50;99.90
55213;DHT22;41083;52.932;6.674;2022-12-29T12:24:47;9.60;99.90
55213;DHT22;41083;52.932;6.674;2022-12-29T12:27:20;9.60;99.90
55213;DHT22;41083;52.932;6.674;2022-12-29T12:30:12;9.70;99.90
55213;DHT22;41083;52.932;6.674;2022-12-29T12:35:48;9.70;99.90
55213;DHT22;41083;52.932;6.674;2022-12-29T12:38:31;9.70;99.90
55213;DHT22;41083;52.932;6.674;2022-12-29T12:41:11;9.70;99.90
55213;DHT22;41083;52.932;6.674;2022-12-29T12:43:45;9.70;99.90
55213;DHT22;41083;52.932;6.674;2022-12-29T12:46:48;9.60;99.90
55213;DHT22;41083;52.932;6.674;2022-12-29T12:49:37;9.60;99.90
55213;DHT22;41083;52.932;6.674;2022-12-29T12:52:28;9.50;99.90
55213;DHT22;41083;52.932;6.674;2022-12-29T12:55:35;9.50;99.90
55213;DHT22;41083;52.932;6.674;2022-12-29T13:01:00;9.40;99.90
55213;DHT22;41083;52.932;6.674;2022-12-29T13:06:22;9.40;99.90
55213;DHT22;41083;52.932;6.674;2022-12-29T13:11:43;9.50;99.90
55213;DHT22;41083;52.932;6.674;2022-12-29T13:16:50;9.50;99.90
55213;DHT22;41083;52.932;6.674;2022-12-29T13:19:48;9.50;99.90
55213;DHT22;41083;52.932;6.674;2022-12-29T13:22:42;9.50;99.90
55213;DHT22;41083;52.932;6.674;2022-12-29T13:25:47;9.60;99.90
55213;DHT22;41083;52.932;6.674;2022-12-29T13:30:57;9.50;99.90
55213;DHT22;41083;52.932;6.674;2022-12-29T13:36:39;9.50;99.90
55213;DHT22;41083;52.932;6.674;2022-12-29T13:39:18;9.50;99.90
55213;DHT22;41083;52.932;6.674;2022-12-29T13:41:53;9.50;99.90
55213;DHT22;41083;52.932;6.674;2022-12-29T13:44:23;9.40;99.90
55213;DHT22;41083;52.932;6.674;2022-12-29T13:46:50;9.40;99.90
55213;DHT22;41083;52.932;6.674;2022-12-29T13:49:19;9.40;99.90
55213;DHT22;41083;52.932;6.674;2022-12-29T13:51:51;9.40;99.90
55213;DHT22;41083;52.932;6.674;2022-12-29T13:54:49;9.40;99.90
55213;DHT22;41083;52.932;6.674;2022-12-29T13:57:31;9.40;99.90
55213;DHT22;41083;52.932;6.674;2022-12-29T14:00:15;9.40;99.90
55213;DHT22;41083;52.932;6.674;2022-12-29T14:07:49;9.30;99.90
55213;DHT22;41083;52.932;6.674;2022-12-29T14:10:34;9.30;99.90
55213;DHT22;41083;52.932;6.674;2022-12-29T14:13:20;9.30;99.90
55213;DHT22;41083;52.932;6.674;2022-12-29T14:15:57;9.20;99.90
55213;DHT22;41083;52.932;6.674;2022-12-29T14:18:29;9.20;99.90
55213;DHT22;41083;52.932;6.674;2022-12-29T14:21:19;9.20;99.90
55213;DHT22;41083;52.932;6.674;2022-12-29T14:23:45;9.20;99.90
55213;DHT22;41083;52.932;6.674;2022-12-29T14:26:32;9.20;99.90
55213;DHT22;41083;52.932;6.674;2022-12-29T14:31:51;9.20;99.90
55213;DHT22;41083;52.932;6.674;2022-12-29T14:37:00;9.20;99.90
55213;DHT22;41083;52.932;6.674;2022-12-29T14:39:42;9.10;99.90
55213;DHT22;41083;52.932;6.674;2022-12-29T14:42:15;9.10;99.90
55213;DHT22;41083;52.932;6.674;2022-12-29T14:52:46;9.10;99.90
55213;DHT22;41083;52.932;6.674;2022-12-29T14:57:43;9.00;99.90
55213;DHT22;41083;52.932;6.674;2022-12-29T15:00:22;9.00;99.90
55213;DHT22;41083;52.932;6.674;2022-12-29T15:03:33;9.00;99.90
55213;DHT22;41083;52.932;6.674;2022-12-29T15:05:53;9.00;99.90
55213;DHT22;41083;52.932;6.674;2022-12-29T15:08:24;9.00;99.90
55213;DHT22;41083;52.932;6.674;2022-12-29T15:10:57;8.90;99.90
55213;DHT22;41083;52.932;6.674;2022-12-29T15:13:36;8.80;99.90
55213;DHT22;41083;52.932;6.674;2022-12-29T15:16:02;8.90;99.90
55213;DHT22;41083;52.932;6.674;2022-12-29T15:18:31;8.90;99.90
55213;DHT22;41083;52.932;6.674;2022-12-29T15:21:05;8.90;99.90
55213;DHT22;41083;52.932;6.674;2022-12-29T15:23:33;8.80;99.90
55213;DHT22;41083;52.932;6.674;2022-12-29T15:26:00;8.80;99.90
55213;DHT22;41083;52.932;6.674;2022-12-29T15:28:27;8.80;99.90
55213;DHT22;41083;52.932;6.674;2022-12-29T15:31:03;8.80;99.90
55213;DHT22;41083;52.932;6.674;2022-12-29T15:33:29;8.80;99.90
55213;DHT22;41083;52.932;6.674;2022-12-29T15:36:01;8.80;99.90
55213;DHT22;41083;52.932;6.674;2022-12-29T15:38:29;8.80;99.90
55213;DHT22;41083;52.932;6.674;2022-12-29T15:41:15;8.70;99.90
55213;DHT22;41083;52.932;6.674;2022-12-29T15:44:08;8.70;99.90
55213;DHT22;41083;52.932;6.674;2022-12-29T15:46:36;8.70;99.90
55213;DHT22;41083;52.932;6.674;2022-12-29T15:49:06;8.70;99.90
55213;DHT22;41083;52.932;6.674;2022-12-29T15:51:39;8.70;99.90
55213;DHT22;41083;52.932;6.674;2022-12-29T15:54:06;8.70;99.90
55213;DHT22;41083;52.932;6.674;2022-12-29T15:56:40;8.70;99.90
55213;DHT22;41083;52.932;6.674;2022-12-29T15:59:26;8.70;99.90
55213;DHT22;41083;52.932;6.674;2022-12-29T16:01:52;8.70;99.90
55213;DHT22;41083;52.932;6.674;2022-12-29T16:04:18;8.60;99.90
55213;DHT22;41083;52.932;6.674;2022-12-29T16:06:55;8.70;99.90
55213;DHT22;41083;52.932;6.674;2022-12-29T16:09:41;8.70;99.90
55213;DHT22;41083;52.932;6.674;2022-12-29T16:12:20;8.70;99.90
55213;DHT22;41083;52.932;6.674;2022-12-29T16:14:58;8.70;99.90
55213;DHT22;41083;52.932;6.674;2022-12-29T16:17:27;8.70;99.90
55213;DHT22;41083;52.932;6.674;2022-12-29T16:20:21;8.80;99.90
55213;DHT22;41083;52.932;6.674;2022-12-29T16:22:58;8.80;99.90
55213;DHT22;41083;52.932;6.674;2022-12-29T16:25:28;8.80;99.90
55213;DHT22;41083;52.932;6.674;2022-12-29T16:27:57;8.80;99.90
55213;DHT22;41083;52.932;6.674;2022-12-29T16:30:32;8.80;99.90
55213;DHT22;41083;52.932;6.674;2022-12-29T16:33:01;8.80;99.90
55213;DHT22;41083;52.932;6.674;2022-12-29T16:35:27;8.80;99.90
55213;DHT22;41083;52.932;6.674;2022-12-29T16:38:21;8.80;99.90
55213;DHT22;41083;52.932;6.674;2022-12-29T16:40:53;8.80;99.90
55213;DHT22;41083;52.932;6.674;2022-12-29T16:43:27;8.80;99.90
55213;DHT22;41083;52.932;6.674;2022-12-29T16:48:45;8.80;99.90
55213;DHT22;41083;52.932;6.674;2022-12-29T16:51:18;8.70;99.90
55213;DHT22;41083;52.932;6.674;2022-12-29T16:53:52;8.60;99.90
55213;DHT22;41083;52.932;6.674;2022-12-29T16:56:21;8.50;99.90
55213;DHT22;41083;52.932;6.674;2022-12-29T16:58:50;8.30;99.90
55213;DHT22;41083;52.932;6.674;2022-12-29T17:01:19;8.00;99.90
55213;DHT22;41083;52.932;6.674;2022-12-29T17:03:56;7.90;99.90
55213;DHT22;41083;52.932;6.674;2022-12-29T17:06:23;7.70;99.90
55213;DHT22;41083;52.932;6.674;2022-12-29T17:08:49;7.70;99.90
55213;DHT22;41083;52.932;6.674;2022-12-29T17:11:28;7.60;99.90
55213;DHT22;41083;52.932;6.674;2022-12-29T17:16:56;7.50;99.90
55213;DHT22;41083;52.932;6.674;2022-12-29T17:19:33;7.50;99.90
55213;DHT22;41083;52.932;6.674;2022-12-29T17:21:59;7.50;99.90
55213;DHT22;41083;52.932;6.674;2022-12-29T17:24:25;7.50;99.90
55213;DHT22;41083;52.932;6.674;2022-12-29T17:26:59;7.40;99.90
55213;DHT22;41083;52.932;6.674;2022-12-29T17:31:54;7.40;99.90
55213;DHT22;41083;52.932;6.674;2022-12-29T17:34:20;7.30;99.90
55213;DHT22;41083;52.932;6.674;2022-12-29T17:36:46;7.30;99.90
55213;DHT22;41083;52.932;6.674;2022-12-29T17:39:11;7.30;99.90
55213;DHT22;41083;52.932;6.674;2022-12-29T17:41:37;7.30;99.90
55213;DHT22;41083;52.932;6.674;2022-12-29T17:44:04;7.30;99.90
55213;DHT22;41083;52.932;6.674;2022-12-29T17:46:30;7.30;99.90
55213;DHT22;41083;52.932;6.674;2022-12-29T17:48:56;7.30;99.90